sensor_id;sensor_type;location;lat;lon;timestamp;pressure;altitude;pressure_sealevel;temperature;humidity
12219;BME280;6172;42.646;23.344;2023-07-13T00:01:53;94832.38;;;21.09;100.00
12219;BME280;6172;42.646;23.344;2023-07-13T00:04:23;94831.97;;;21.01;100.00
12219;BME280;6172;42.646;23.344;2023-07-13T00:06:51;94824.63;;;20.98;100.00
12219;BME280;6172;42.646;23.344;2023-07-13T00:09:19;94832.56;;;21.05;100.00
12219;BME280;6172;42.646;23.344;2023-07-13T00:11:54;94820.72;;;21.05;100.00
12219;BME280;6172;42.646;23.344;2023-07-13T00:14:23;94831.50;;;21.03;100.00
12219;BME280;6172;42.646;23.344;2023-07-13T00:16:50;94827.13;;;20.96;100.00
12219;BME280;6172;42.646;23.344;2023-07-13T00:19:17;94828.47;;;20.86;100.00
12219;BME280;6172;42.646;23.344;2023-07-13T00:21:44;94822.31;;;20.82;100.00
12219;BME280;6172;42.646;23.344;2023-07-13T00:24:13;94820.78;;;20.81;100.00
12219;BME280;6172;42.646;23.344;2023-07-13T00:26:41;94825.06;;;20.68;100.00
12219;BME280;6172;42.646;23.344;2023-07-13T00:29:10;94810.81;;;20.60;100.00
12219;BME280;6172;42.646;23.344;2023-07-13T00:31:38;94825.41;;;20.61;100.00
12219;BME280;6172;42.646;23.344;2023-07-13T00:34:05;94826.19;;;20.61;100.00
12219;BME280;6172;42.646;23.344;2023-07-13T00:36:32;94820.16;;;20.48;100.00
12219;BME280;6172;42.646;23.344;2023-07-13T00:38:59;94814.13;;;20.50;100.00
12219;BME280;6172;42.646;23.344;2023-07-13T00:41:26;94820.44;;;20.50;100.00
12219;BME280;6172;42.646;23.344;2023-07-13T00:43:53;94817.09;;;20.61;100.00
12219;BME280;6172;42.646;23.344;2023-07-13T00:46:23;94826.97;;;20.62;100.00
12219;BME280;6172;42.646;23.344;2023-07-13T00:48:54;94815.59;;;20.74;100.00
12219;BME280;6172;42.646;23.344;2023-07-13T00:51:28;94819.63;;;20.73;100.00
12219;BME280;6172;42.646;23.344;2023-07-13T00:53:59;94819.91;;;20.75;100.00
12219;BME280;6172;42.646;23.344;2023-07-13T00:56:27;94816.06;;;20.58;100.00
12219;BME280;6172;42.646;23.344;2023-07-13T00:58:55;94811.59;;;20.75;100.00
12219;BME280;6172;42.646;23.344;2023-07-13T01:01:23;94807.13;;;20.78;100.00
12219;BME280;6172;42.646;23.344;2023-07-13T01:03:52;94809.34;;;20.88;100.00
12219;BME280;6172;42.646;23.344;2023-07-13T01:06:19;94804.66;;;20.80;100.00
12219;BME280;6172;42.646;23.344;2023-07-13T01:08:46;94799.06;;;20.65;100.00
12219;BME280;6172;42.646;23.344;2023-07-13T01:11:18;94806.53;;;20.74;100.00
12219;BME280;6172;42.646;23.344;2023-07-13T01:13:45;94808.81;;;20.75;100.00
12219;BME280;6172;42.646;23.344;2023-07-13T01:16:15;94803.28;;;20.75;100.00
12219;BME280;6172;42.646;23.344;2023-07-13T01:18:44;94799.16;;;20.71;100.00
12219;BME280;6172;42.646;23.344;2023-07-13T01:21:12;94803.00;;;20.73;100.00
12219;BME280;6172;42.646;23.344;2023-07-13T01:23:39;94799.94;;;20.71;100.00
12219;BME280;6172;42.646;23.344;2023-07-13T01:26:06;94798.66;;;20.58;100.00
12219;BME280;6172;42.646;23.344;2023-07-13T01:28:33;94795.25;;;20.63;100.00
12219;BME280;6172;42.646;23.344;2023-07-13T01:31:02;94795.66;;;20.70;100.00
12219;BME280;6172;42.646;23.344;2023-07-13T01:33:29;94805.91;;;20.41;100.00
12219;BME280;6172;42.646;23.344;2023-07-13T01:35:56;94802.50;;;20.22;100.00
12219;BME280;6172;42.646;23.344;2023-07-13T01:38:26;94816.69;;;19.68;100.00
12219;BME280;6172;42.646;23.344;2023-07-13T01:40:53;94809.56;;;19.52;100.00
12219;BME280;6172;42.646;23.344;2023-07-13T01:43:20;94815.94;;;19.26;100.00
12219;BME280;6172;42.646;23.344;2023-07-13T01:45:47;94808.88;;;19.34;100.00
12219;BME280;6172;42.646;23.344;2023-07-13T01:48:14;94805.13;;;19.46;100.00
12219;BME280;6172;42.646;23.344;2023-07-13T01:50:41;94800.25;;;19.32;100.00
12219;BME280;6172;42.646;23.344;2023-07-13T01:53:08;94805.63;;;19.35;100.00
12219;BME280;6172;42.646;23.344;2023-07-13T01:55:37;94800.88;;;19.27;100.00
12219;BME280;6172;42.646;23.344;2023-07-13T01:58:04;94801.28;;;19.43;100.00
12219;BME280;6172;42.646;23.344;2023-07-13T02:00:32;94804.25;;;19.64;100.00
12219;BME280;6172;42.646;23.344;2023-07-13T02:02:59;94793.28;;;19.78;100.00
12219;BME280;6172;42.646;23.344;2023-07-13T02:05:26;94800.97;;;19.74;100.00
12219;BME280;6172;42.646;23.344;2023-07-13T02:07:53;94812.75;;;19.84;100.00
12219;BME280;6172;42.646;23.344;2023-07-13T02:10:20;94804.81;;;20.00;100.00
12219;BME280;6172;42.646;23.344;2023-07-13T02:12:49;94803.88;;;20.03;100.00
12219;BME280;6172;42.646;23.344;2023-07-13T02:15:17;94796.34;;;20.04;100.00
12219;BME280;6172;42.646;23.344;2023-07-13T02:17:44;94804.50;;;20.07;100.00
12219;BME280;6172;42.646;23.344;2023-07-13T02:20:11;94804.75;;;19.86;100.00
12219;BME280;6172;42.646;23.344;2023-07-13T02:22:37;94810.69;;;19.93;100.00
12219;BME280;6172;42.646;23.344;2023-07-13T02:25:05;94807.19;;;19.60;100.00
12219;BME280;6172;42.646;23.344;2023-07-13T02:27:31;94808.53;;;19.65;100.00
12219;BME280;6172;42.646;23.344;2023-07-13T02:30:00;94821.31;;;19.29;100.00
12219;BME280;6172;42.646;23.344;2023-07-13T02:32:27;94809.72;;;19.49;100.00
12219;BME280;6172;42.646;23.344;2023-07-13T02:34:55;94818.41;;;19.66;100.00
12219;BME280;6172;42.646;23.344;2023-07-13T02:37:22;94825.44;;;19.67;100.00
12219;BME280;6172;42.646;23.344;2023-07-13T02:39:50;94822.22;;;19.68;100.00
12219;BME280;6172;42.646;23.344;2023-07-13T02:42:16;94812.31;;;19.76;100.00
12219;BME280;6172;42.646;23.344;2023-07-13T02:44:43;94816.91;;;19.79;100.00
12219;BME280;6172;42.646;23.344;2023-07-13T02:47:12;94816.75;;;19.50;100.00
12219;BME280;6172;42.646;23.344;2023-07-13T02:49:39;94819.59;;;19.41;100.00
12219;BME280;6172;42.646;23.344;2023-07-13T02:52:06;94820.47;;;19.47;100.00
12219;BME280;6172;42.646;23.344;2023-07-13T02:54:33;94820.25;;;19.60;100.00
12219;BME280;6172;42.646;23.344;2023-07-13T02:57:00;94812.19;;;19.47;100.00
12219;BME280;6172;42.646;23.344;2023-07-13T02:59:27;94816.38;;;19.66;100.00
12219;BME280;6172;42.646;23.344;2023-07-13T03:01:54;94816.50;;;19.39;100.00
12219;BME280;6172;42.646;23.344;2023-07-13T03:04:22;94818.13;;;19.54;100.00
12219;BME280;6172;42.646;23.344;2023-07-13T03:06:49;94822.31;;;18.99;100.00
12219;BME280;6172;42.646;23.344;2023-07-13T03:09:16;94815.34;;;19.13;100.00
12219;BME280;6172;42.646;23.344;2023-07-13T03:11:43;94831.72;;;19.34;100.00
12219;BME280;6172;42.646;23.344;2023-07-13T03:14:09;94829.75;;;19.35;100.00
12219;BME280;6172;42.646;23.344;2023-07-13T03:16:36;94830.06;;;19.28;100.00
12219;BME280;6172;42.646;23.344;2023-07-13T03:19:03;94831.28;;;19.27;100.00
12219;BME280;6172;42.646;23.344;2023-07-13T03:21:31;94833.66;;;19.01;100.00
12219;BME280;6172;42.646;23.344;2023-07-13T03:23:58;94835.16;;;19.11;100.00
12219;BME280;6172;42.646;23.344;2023-07-13T03:26:25;94833.03;;;19.06;100.00
12219;BME280;6172;42.646;23.344;2023-07-13T03:28:53;94826.53;;;19.18;100.00
12219;BME280;6172;42.646;23.344;2023-07-13T03:31:22;94835.28;;;19.17;100.00
12219;BME280;6172;42.646;23.344;2023-07-13T03:33:50;94833.88;;;19.39;100.00
12219;BME280;6172;42.646;23.344;2023-07-13T03:36:20;94840.00;;;19.43;100.00
12219;BME280;6172;42.646;23.344;2023-07-13T03:38:51;94840.44;;;19.51;100.00
12219;BME280;6172;42.646;23.344;2023-07-13T03:41:19;94840.66;;;19.62;100.00
12219;BME280;6172;42.646;23.344;2023-07-13T03:43:47;94839.28;;;19.67;100.00
12219;BME280;6172;42.646;23.344;2023-07-13T03:46:15;94834.16;;;19.74;100.00
12219;BME280;6172;42.646;23.344;2023-07-13T03:48:43;94834.28;;;19.80;100.00
12219;BME280;6172;42.646;23.344;2023-07-13T03:51:11;94845.00;;;19.87;100.00
12219;BME280;6172;42.646;23.344;2023-07-13T03:53:41;94839.31;;;19.90;100.00
12219;BME280;6172;42.646;23.344;2023-07-13T03:56:12;94831.13;;;19.96;100.00
12219;BME280;6172;42.646;23.344;2023-07-13T03:58:41;94837.38;;;20.05;100.00
12219;BME280;6172;42.646;23.344;2023-07-13T04:01:10;94836.13;;;20.06;100.00
12219;BME280;6172;42.646;23.344;2023-07-13T04:03:37;94832.91;;;20.08;100.00
12219;BME280;6172;42.646;23.344;2023-07-13T04:06:06;94827.16;;;20.20;100.00
12219;BME280;6172;42.646;23.344;2023-07-13T04:08:34;94836.38;;;20.17;100.00
12219;BME280;6172;42.646;23.344;2023-07-13T04:11:04;94837.28;;;20.23;100.00
12219;BME280;6172;42.646;23.344;2023-07-13T04:13:33;94832.78;;;20.26;100.00
12219;BME280;6172;42.646;23.344;2023-07-13T04:16:00;94829.19;;;20.34;100.00
12219;BME280;6172;42.646;23.344;2023-07-13T04:18:26;94833.78;;;20.37;100.00
12219;BME280;6172;42.646;23.344;2023-07-13T04:20:53;94836.13;;;20.53;100.00
12219;BME280;6172;42.646;23.344;2023-07-13T04:23:20;94832.75;;;20.49;100.00
12219;BME280;6172;42.646;23.344;2023-07-13T04:25:48;94840.91;;;20.67;100.00
12219;BME280;6172;42.646;23.344;2023-07-13T04:28:18;94843.00;;;20.72;100.00
12219;BME280;6172;42.646;23.344;2023-07-13T04:30:46;94847.03;;;20.71;100.00
12219;BME280;6172;42.646;23.344;2023-07-13T04:33:13;94853.56;;;20.83;100.00
12219;BME280;6172;42.646;23.344;2023-07-13T04:35:42;94845.34;;;20.88;100.00
12219;BME280;6172;42.646;23.344;2023-07-13T04:38:09;94840.78;;;21.00;100.00
12219;BME280;6172;42.646;23.344;2023-07-13T04:40:37;94843.38;;;21.03;100.00
12219;BME280;6172;42.646;23.344;2023-07-13T04:43:06;94847.00;;;21.09;100.00
12219;BME280;6172;42.646;23.344;2023-07-13T04:45:32;94852.81;;;21.11;100.00
12219;BME280;6172;42.646;23.344;2023-07-13T04:48:03;94850.03;;;21.11;100.00
12219;BME280;6172;42.646;23.344;2023-07-13T04:50:30;94862.19;;;21.28;100.00
12219;BME280;6172;42.646;23.344;2023-07-13T04:52:57;94856.91;;;21.45;100.00
12219;BME280;6172;42.646;23.344;2023-07-13T04:55:24;94874.03;;;21.43;100.00
12219;BME280;6172;42.646;23.344;2023-07-13T04:57:56;94869.44;;;21.40;100.00
12219;BME280;6172;42.646;23.344;2023-07-13T05:00:25;94871.94;;;21.53;100.00
12219;BME280;6172;42.646;23.344;2023-07-13T05:02:52;94871.38;;;21.63;100.00
12219;BME280;6172;42.646;23.344;2023-07-13T05:05:20;94884.28;;;21.66;100.00
12219;BME280;6172;42.646;23.344;2023-07-13T05:07:47;94871.66;;;21.65;100.00
12219;BME280;6172;42.646;23.344;2023-07-13T05:10:14;94876.16;;;21.98;100.00
12219;BME280;6172;42.646;23.344;2023-07-13T05:12:40;94875.13;;;21.95;100.00
12219;BME280;6172;42.646;23.344;2023-07-13T05:15:08;94877.09;;;22.09;100.00
12219;BME280;6172;42.646;23.344;2023-07-13T05:17:35;94886.59;;;22.03;100.00
12219;BME280;6172;42.646;23.344;2023-07-13T05:20:05;94883.19;;;22.13;100.00
12219;BME280;6172;42.646;23.344;2023-07-13T05:22:33;94887.69;;;22.25;100.00
12219;BME280;6172;42.646;23.344;2023-07-13T05:25:01;94884.00;;;22.34;100.00
12219;BME280;6172;42.646;23.344;2023-07-13T05:27:28;94880.50;;;22.53;100.00
12219;BME280;6172;42.646;23.344;2023-07-13T05:29:54;94889.56;;;22.54;100.00
12219;BME280;6172;42.646;23.344;2023-07-13T05:32:21;94882.38;;;22.62;100.00
12219;BME280;6172;42.646;23.344;2023-07-13T05:34:49;94879.19;;;22.49;100.00
12219;BME280;6172;42.646;23.344;2023-07-13T05:37:15;94877.41;;;22.71;100.00
12219;BME280;6172;42.646;23.344;2023-07-13T05:39:44;94892.56;;;22.90;100.00
12219;BME280;6172;42.646;23.344;2023-07-13T05:42:11;94892.19;;;22.83;100.00
12219;BME280;6172;42.646;23.344;2023-07-13T05:44:37;94890.13;;;22.78;100.00
12219;BME280;6172;42.646;23.344;2023-07-13T05:47:05;94886.09;;;23.24;100.00
12219;BME280;6172;42.646;23.344;2023-07-13T05:49:32;94882.44;;;23.13;100.00
12219;BME280;6172;42.646;23.344;2023-07-13T05:51:59;94886.09;;;23.50;100.00
12219;BME280;6172;42.646;23.344;2023-07-13T05:54:26;94885.81;;;23.73;100.00
12219;BME280;6172;42.646;23.344;2023-07-13T05:56:55;94880.78;;;24.56;100.00
12219;BME280;6172;42.646;23.344;2023-07-13T05:59:22;94889.00;;;25.73;97.65
12219;BME280;6172;42.646;23.344;2023-07-13T06:01:49;94877.88;;;27.32;77.13
12219;BME280;6172;42.646;23.344;2023-07-13T06:04:17;94880.06;;;29.11;66.50
12219;BME280;6172;42.646;23.344;2023-07-13T06:06:44;94855.94;;;30.47;58.18
12219;BME280;6172;42.646;23.344;2023-07-13T06:09:11;94861.38;;;30.58;55.85
12219;BME280;6172;42.646;23.344;2023-07-13T06:11:37;94865.69;;;31.24;53.00
12219;BME280;6172;42.646;23.344;2023-07-13T06:14:06;94861.31;;;32.52;46.76
12219;BME280;6172;42.646;23.344;2023-07-13T06:16:33;94865.03;;;31.52;48.36
12219;BME280;6172;42.646;23.344;2023-07-13T06:19:00;94868.63;;;32.68;45.86
12219;BME280;6172;42.646;23.344;2023-07-13T06:21:26;94866.34;;;32.67;44.41
12219;BME280;6172;42.646;23.344;2023-07-13T06:23:53;94864.03;;;33.79;42.56
12219;BME280;6172;42.646;23.344;2023-07-13T06:26:23;94879.03;;;34.47;39.23
12219;BME280;6172;42.646;23.344;2023-07-13T06:28:50;94866.09;;;35.14;37.41
12219;BME280;6172;42.646;23.344;2023-07-13T06:31:19;94866.75;;;35.45;34.67
12219;BME280;6172;42.646;23.344;2023-07-13T06:33:45;94867.84;;;36.21;33.03
12219;BME280;6172;42.646;23.344;2023-07-13T06:36:12;94862.41;;;36.65;33.02
12219;BME280;6172;42.646;23.344;2023-07-13T06:38:39;94857.38;;;37.31;31.18
12219;BME280;6172;42.646;23.344;2023-07-13T06:41:07;94864.97;;;36.53;30.45
12219;BME280;6172;42.646;23.344;2023-07-13T06:43:34;94865.75;;;35.57;32.27
12219;BME280;6172;42.646;23.344;2023-07-13T06:46:01;94858.78;;;37.06;30.78
12219;BME280;6172;42.646;23.344;2023-07-13T06:48:30;94857.22;;;37.12;30.60
12219;BME280;6172;42.646;23.344;2023-07-13T06:50:56;94868.66;;;36.14;31.94
12219;BME280;6172;42.646;23.344;2023-07-13T06:53:23;94862.19;;;34.95;33.82
12219;BME280;6172;42.646;23.344;2023-07-13T06:55:50;94861.19;;;35.62;32.67
12219;BME280;6172;42.646;23.344;2023-07-13T06:58:18;94859.91;;;35.63;32.59
12219;BME280;6172;42.646;23.344;2023-07-13T07:00:46;94855.03;;;37.20;30.56
12219;BME280;6172;42.646;23.344;2023-07-13T07:03:14;94853.28;;;37.08;31.48
12219;BME280;6172;42.646;23.344;2023-07-13T07:05:42;94862.69;;;36.76;31.29
12219;BME280;6172;42.646;23.344;2023-07-13T07:08:10;94859.25;;;36.78;30.98
12219;BME280;6172;42.646;23.344;2023-07-13T07:10:36;94863.72;;;37.05;29.94
12219;BME280;6172;42.646;23.344;2023-07-13T07:13:03;94856.34;;;36.43;30.99
12219;BME280;6172;42.646;23.344;2023-07-13T07:15:30;94855.94;;;35.90;31.59
12219;BME280;6172;42.646;23.344;2023-07-13T07:17:57;94860.78;;;35.73;31.82
12219;BME280;6172;42.646;23.344;2023-07-13T07:20:24;94861.28;;;36.43;31.53
12219;BME280;6172;42.646;23.344;2023-07-13T07:22:55;94860.22;;;36.55;30.69
12219;BME280;6172;42.646;23.344;2023-07-13T07:25:21;94868.31;;;37.01;29.96
12219;BME280;6172;42.646;23.344;2023-07-13T07:27:48;94857.88;;;36.12;30.63
12219;BME280;6172;42.646;23.344;2023-07-13T07:30:15;94852.00;;;37.18;29.76
12219;BME280;6172;42.646;23.344;2023-07-13T07:32:42;94851.06;;;36.65;30.28
12219;BME280;6172;42.646;23.344;2023-07-13T07:35:12;94843.41;;;37.86;29.31
12219;BME280;6172;42.646;23.344;2023-07-13T07:37:39;94850.13;;;37.64;29.12
12219;BME280;6172;42.646;23.344;2023-07-13T07:40:08;94844.25;;;37.79;29.05
12219;BME280;6172;42.646;23.344;2023-07-13T07:42:35;94836.72;;;38.27;28.35
12219;BME280;6172;42.646;23.344;2023-07-13T07:45:01;94835.97;;;38.73;28.25
12219;BME280;6172;42.646;23.344;2023-07-13T07:47:28;94845.91;;;37.39;29.00
12219;BME280;6172;42.646;23.344;2023-07-13T07:49:55;94838.53;;;36.68;30.04
12219;BME280;6172;42.646;23.344;2023-07-13T07:52:22;94844.31;;;35.32;32.11
12219;BME280;6172;42.646;23.344;2023-07-13T07:54:49;94844.28;;;36.77;30.73
12219;BME280;6172;42.646;23.344;2023-07-13T07:57:17;94828.19;;;37.74;28.85
12219;BME280;6172;42.646;23.344;2023-07-13T07:59:44;94836.31;;;37.00;29.71
12219;BME280;6172;42.646;23.344;2023-07-13T08:02:11;94837.41;;;36.46;30.60
12219;BME280;6172;42.646;23.344;2023-07-13T08:04:38;94820.94;;;35.63;31.84
12219;BME280;6172;42.646;23.344;2023-07-13T08:07:05;94823.66;;;36.10;31.44
12219;BME280;6172;42.646;23.344;2023-07-13T08:09:32;94819.59;;;34.32;34.43
12219;BME280;6172;42.646;23.344;2023-07-13T08:11:59;94812.41;;;33.86;34.98
12219;BME280;6172;42.646;23.344;2023-07-13T08:14:27;94810.75;;;34.36;34.37
12219;BME280;6172;42.646;23.344;2023-07-13T08:16:54;94811.19;;;33.52;35.79
12219;BME280;6172;42.646;23.344;2023-07-13T08:19:21;94805.31;;;33.35;35.97
12219;BME280;6172;42.646;23.344;2023-07-13T08:21:48;94807.22;;;33.47;36.06
12219;BME280;6172;42.646;23.344;2023-07-13T08:24:15;94792.94;;;33.02;36.49
12219;BME280;6172;42.646;23.344;2023-07-13T08:26:44;94796.63;;;33.25;36.23
12219;BME280;6172;42.646;23.344;2023-07-13T08:29:11;94794.53;;;33.18;37.23
12219;BME280;6172;42.646;23.344;2023-07-13T08:31:39;94796.88;;;33.57;35.92
12219;BME280;6172;42.646;23.344;2023-07-13T08:34:06;94796.69;;;33.55;36.13
12219;BME280;6172;42.646;23.344;2023-07-13T08:36:33;94789.53;;;33.47;36.36
12219;BME280;6172;42.646;23.344;2023-07-13T08:39:00;94793.75;;;33.76;35.63
12219;BME280;6172;42.646;23.344;2023-07-13T08:41:27;94786.03;;;33.91;35.42
12219;BME280;6172;42.646;23.344;2023-07-13T08:43:57;94794.78;;;32.64;37.09
12219;BME280;6172;42.646;23.344;2023-07-13T08:46:28;94780.94;;;33.97;36.22
12219;BME280;6172;42.646;23.344;2023-07-13T08:49:05;94784.94;;;33.21;37.16
12219;BME280;6172;42.646;23.344;2023-07-13T08:51:40;94784.38;;;32.87;37.38
12219;BME280;6172;42.646;23.344;2023-07-13T08:54:18;94790.00;;;32.52;38.79
12219;BME280;6172;42.646;23.344;2023-07-13T08:56:47;94789.97;;;33.81;37.73
12219;BME280;6172;42.646;23.344;2023-07-13T08:59:20;94793.84;;;32.62;37.91
12219;BME280;6172;42.646;23.344;2023-07-13T09:02:04;94787.19;;;33.30;36.58
12219;BME280;6172;42.646;23.344;2023-07-13T09:04:41;94802.22;;;33.68;35.94
12219;BME280;6172;42.646;23.344;2023-07-13T09:07:16;94803.28;;;32.36;38.61
12219;BME280;6172;42.646;23.344;2023-07-13T09:09:55;94808.84;;;33.20;36.81
12219;BME280;6172;42.646;23.344;2023-07-13T09:12:31;94813.19;;;32.86;37.94
12219;BME280;6172;42.646;23.344;2023-07-13T09:15:04;94813.81;;;33.42;38.17
12219;BME280;6172;42.646;23.344;2023-07-13T09:17:35;94816.38;;;33.98;36.71
12219;BME280;6172;42.646;23.344;2023-07-13T09:20:10;94813.75;;;34.15;36.48
12219;BME280;6172;42.646;23.344;2023-07-13T09:22:41;94810.34;;;33.94;37.22
12219;BME280;6172;42.646;23.344;2023-07-13T09:25:21;94806.94;;;33.88;36.69
12219;BME280;6172;42.646;23.344;2023-07-13T09:27:53;94818.44;;;33.83;37.21
12219;BME280;6172;42.646;23.344;2023-07-13T09:30:29;94815.63;;;34.43;34.69
12219;BME280;6172;42.646;23.344;2023-07-13T09:32:57;94814.09;;;33.89;36.61
12219;BME280;6172;42.646;23.344;2023-07-13T09:35:27;94810.53;;;33.89;36.54
12219;BME280;6172;42.646;23.344;2023-07-13T09:37:58;94805.63;;;34.65;34.91
12219;BME280;6172;42.646;23.344;2023-07-13T09:40:32;94809.97;;;34.43;36.29
12219;BME280;6172;42.646;23.344;2023-07-13T09:43:01;94804.19;;;35.50;34.54
12219;BME280;6172;42.646;23.344;2023-07-13T09:45:33;94798.13;;;35.54;33.87
12219;BME280;6172;42.646;23.344;2023-07-13T09:48:04;94804.88;;;34.57;34.58
12219;BME280;6172;42.646;23.344;2023-07-13T09:50:37;94803.28;;;35.33;32.96
12219;BME280;6172;42.646;23.344;2023-07-13T09:53:04;94785.59;;;35.89;32.05
12219;BME280;6172;42.646;23.344;2023-07-13T09:55:38;94785.44;;;35.55;32.55
12219;BME280;6172;42.646;23.344;2023-07-13T09:58:10;94776.50;;;36.39;31.20
12219;BME280;6172;42.646;23.344;2023-07-13T10:00:38;94776.44;;;35.73;32.19
12219;BME280;6172;42.646;23.344;2023-07-13T10:03:17;94775.84;;;35.75;32.23
12219;BME280;6172;42.646;23.344;2023-07-13T10:05:51;94763.69;;;36.31;32.01
12219;BME280;6172;42.646;23.344;2023-07-13T10:08:21;94754.56;;;36.74;31.26
12219;BME280;6172;42.646;23.344;2023-07-13T10:10:53;94758.06;;;36.48;32.16
12219;BME280;6172;42.646;23.344;2023-07-13T10:13:33;94751.22;;;36.85;31.50
12219;BME280;6172;42.646;23.344;2023-07-13T10:16:04;94754.38;;;36.38;31.52
12219;BME280;6172;42.646;23.344;2023-07-13T10:18:37;94750.84;;;36.30;31.61
12219;BME280;6172;42.646;23.344;2023-07-13T10:21:13;94753.69;;;36.30;31.21
12219;BME280;6172;42.646;23.344;2023-07-13T10:23:41;94753.78;;;36.39;30.94
12219;BME280;6172;42.646;23.344;2023-07-13T10:26:15;94759.34;;;36.30;31.70
12219;BME280;6172;42.646;23.344;2023-07-13T10:28:45;94747.53;;;36.58;31.40
12219;BME280;6172;42.646;23.344;2023-07-13T10:31:15;94749.38;;;36.80;31.48
12219;BME280;6172;42.646;23.344;2023-07-13T10:33:43;94741.63;;;36.98;27.82
12219;BME280;6172;42.646;23.344;2023-07-13T10:36:19;94737.16;;;37.04;27.45
12219;BME280;6172;42.646;23.344;2023-07-13T10:38:48;94743.97;;;35.91;29.95
12219;BME280;6172;42.646;23.344;2023-07-13T10:41:19;94740.69;;;35.14;27.46
12219;BME280;6172;42.646;23.344;2023-07-13T10:43:50;94721.59;;;34.67;26.94
12219;BME280;6172;42.646;23.344;2023-07-13T10:46:20;94727.75;;;34.88;28.76
12219;BME280;6172;42.646;23.344;2023-07-13T10:48:50;94706.50;;;35.51;28.78
12219;BME280;6172;42.646;23.344;2023-07-13T10:51:21;94704.09;;;35.33;26.20
12219;BME280;6172;42.646;23.344;2023-07-13T10:54:17;94695.66;;;34.86;28.33
12219;BME280;6172;42.646;23.344;2023-07-13T10:56:50;94697.94;;;35.27;28.42
12219;BME280;6172;42.646;23.344;2023-07-13T10:59:20;94692.00;;;35.64;29.18
12219;BME280;6172;42.646;23.344;2023-07-13T11:01:55;94700.19;;;35.28;29.69
12219;BME280;6172;42.646;23.344;2023-07-13T11:04:23;94700.19;;;35.28;30.97
12219;BME280;6172;42.646;23.344;2023-07-13T11:06:56;94701.72;;;35.22;31.55
12219;BME280;6172;42.646;23.344;2023-07-13T11:09:33;94702.19;;;35.11;32.12
12219;BME280;6172;42.646;23.344;2023-07-13T11:12:06;94697.44;;;35.13;30.97
12219;BME280;6172;42.646;23.344;2023-07-13T11:14:35;94688.56;;;35.17;31.00
12219;BME280;6172;42.646;23.344;2023-07-13T11:17:29;94681.69;;;34.88;31.34
12219;BME280;6172;42.646;23.344;2023-07-13T11:20:18;94679.97;;;34.92;31.37
12219;BME280;6172;42.646;23.344;2023-07-13T11:22:49;94674.66;;;35.04;31.16
12219;BME280;6172;42.646;23.344;2023-07-13T11:25:28;94677.69;;;34.98;29.42
12219;BME280;6172;42.646;23.344;2023-07-13T11:28:15;94683.63;;;35.17;28.87
12219;BME280;6172;42.646;23.344;2023-07-13T11:30:46;94671.94;;;35.13;28.54
12219;BME280;6172;42.646;23.344;2023-07-13T11:33:17;94665.13;;;34.07;30.44
12219;BME280;6172;42.646;23.344;2023-07-13T11:35:51;94669.16;;;33.74;31.56
12219;BME280;6172;42.646;23.344;2023-07-13T11:38:22;94671.56;;;34.07;30.76
12219;BME280;6172;42.646;23.344;2023-07-13T11:40:53;94668.06;;;34.46;28.79
12219;BME280;6172;42.646;23.344;2023-07-13T11:43:23;94667.56;;;34.25;28.15
12219;BME280;6172;42.646;23.344;2023-07-13T11:45:51;94660.88;;;34.53;29.22
12219;BME280;6172;42.646;23.344;2023-07-13T11:48:22;94661.78;;;34.71;29.72
12219;BME280;6172;42.646;23.344;2023-07-13T11:50:58;94657.97;;;35.15;29.10
12219;BME280;6172;42.646;23.344;2023-07-13T11:53:29;94653.09;;;35.33;26.45
12219;BME280;6172;42.646;23.344;2023-07-13T11:55:59;94645.88;;;35.15;26.14
12219;BME280;6172;42.646;23.344;2023-07-13T11:58:27;94641.41;;;35.29;26.08
12219;BME280;6172;42.646;23.344;2023-07-13T12:00:57;94630.03;;;35.61;27.19
12219;BME280;6172;42.646;23.344;2023-07-13T12:03:26;94618.63;;;35.93;27.04
12219;BME280;6172;42.646;23.344;2023-07-13T12:06:02;94613.19;;;36.21;27.25
12219;BME280;6172;42.646;23.344;2023-07-13T12:08:37;94626.69;;;35.96;27.74
12219;BME280;6172;42.646;23.344;2023-07-13T12:11:11;94623.06;;;35.79;28.81
12219;BME280;6172;42.646;23.344;2023-07-13T12:13:41;94629.28;;;36.02;28.52
12219;BME280;6172;42.646;23.344;2023-07-13T12:16:12;94616.34;;;35.50;29.48
12219;BME280;6172;42.646;23.344;2023-07-13T12:18:42;94623.28;;;35.98;28.82
12219;BME280;6172;42.646;23.344;2023-07-13T12:21:13;94612.94;;;35.93;27.91
12219;BME280;6172;42.646;23.344;2023-07-13T12:23:45;94611.19;;;35.07;28.36
12219;BME280;6172;42.646;23.344;2023-07-13T12:26:15;94607.59;;;35.31;27.32
12219;BME280;6172;42.646;23.344;2023-07-13T12:28:47;94600.59;;;35.32;27.01
12219;BME280;6172;42.646;23.344;2023-07-13T12:31:24;94595.16;;;35.51;27.40
12219;BME280;6172;42.646;23.344;2023-07-13T12:33:57;94593.44;;;35.72;27.51
12219;BME280;6172;42.646;23.344;2023-07-13T12:36:24;94598.34;;;35.72;25.93
12219;BME280;6172;42.646;23.344;2023-07-13T12:38:52;94593.28;;;35.87;25.65
12219;BME280;6172;42.646;23.344;2023-07-13T12:41:19;94584.03;;;35.87;25.87
12219;BME280;6172;42.646;23.344;2023-07-13T12:43:48;94589.00;;;35.62;26.87
12219;BME280;6172;42.646;23.344;2023-07-13T12:46:18;94584.69;;;35.12;27.74
12219;BME280;6172;42.646;23.344;2023-07-13T12:48:49;94589.28;;;35.00;28.45
12219;BME280;6172;42.646;23.344;2023-07-13T12:51:21;94591.34;;;35.07;28.67
12219;BME280;6172;42.646;23.344;2023-07-13T12:53:50;94589.25;;;34.35;29.89
12219;BME280;6172;42.646;23.344;2023-07-13T12:56:24;94590.81;;;34.69;29.59
12219;BME280;6172;42.646;23.344;2023-07-13T12:58:57;94574.00;;;34.71;29.89
12219;BME280;6172;42.646;23.344;2023-07-13T13:01:27;94586.03;;;34.79;29.99
12219;BME280;6172;42.646;23.344;2023-07-13T13:03:54;94586.31;;;34.58;29.78
12219;BME280;6172;42.646;23.344;2023-07-13T13:06:24;94577.91;;;34.43;28.91